createdAt,value
2022-11-05T01:05:16.877Z,97249.91
2022-11-05T01:25:19.455Z,97249.06
2022-11-05T01:45:21.915Z,97266.28
2022-11-05T02:05:24.352Z,97284.62
2022-11-05T02:25:26.790Z,97312.38
2022-11-05T02:45:29.213Z,97342.50
2022-11-05T03:05:31.624Z,97335.94
2022-11-05T03:25:34.068Z,97387.63
2022-11-05T03:45:36.594Z,97397.41
2022-11-05T04:05:39.022Z,97409.72
2022-11-05T04:25:41.512Z,97428.34
2022-11-05T04:45:44.008Z,97453.13
2022-11-05T05:05:46.459Z,97452.88
2022-11-05T05:25:48.888Z,97461.91
2022-11-05T05:45:51.305Z,97480.72
2022-11-05T06:05:53.692Z,97510.06
2022-11-05T06:25:56.094Z,97557.22
2022-11-05T06:45:58.748Z,97577.09
2022-11-05T07:06:01.893Z,97623.16
2022-11-05T07:26:04.409Z,97656.81
2022-11-05T07:46:14.222Z,97684.78
2022-11-05T09:07:32.520Z,97744.06
2022-11-05T09:27:41.025Z,97761.44
2022-11-05T09:47:49.550Z,97771.53
2022-11-05T10:07:52.028Z,97781.69
2022-11-05T10:48:22.610Z,97804.59
2022-11-05T16:54:59.833Z,98148.59
2022-11-05T17:15:02.313Z,98182.50
2022-11-05T17:35:04.840Z,98191.22
2022-11-05T17:55:28.435Z,98194.06
2022-11-05T18:15:33.931Z,98217.16
2022-11-05T18:35:36.358Z,98226.66
2022-11-05T19:16:02.823Z,98262.69
2022-11-05T19:36:05.257Z,98288.28
2022-11-05T19:56:07.870Z,98304.13
2022-11-05T20:16:10.375Z,98334.69
2022-11-05T21:37:11.866Z,98402.06
2022-11-05T21:57:33.135Z,98399.87
2022-11-05T22:17:35.532Z,98413.59
2022-11-05T22:37:37.945Z,98412.78
2022-11-05T22:57:40.324Z,98422.59
2022-11-05T23:18:01.945Z,98425.66
2022-11-05T23:38:22.979Z,98423.34
2022-11-05T23:58:25.402Z,98440.34
